Time;durP1;ratioP1;P1;durP2;ratioP2;P2;SDS_P1;SDS_P2;PMS_P1;PMS_P2;Temp;Humidity;BMP_temperature;BMP_pressure;BME280_temperature;BME280_humidity;BME280_pressure;Samples;Min_cycle;Max_cycle;Signal;HPM_P1;HPM_P2
2023/07/07 00:01:52;;;;;;;3.85;2.50;;;12.40;99.90;;;;;;5067554;28;20053;-80
2023/07/07 00:04:20;;;;;;;3.10;2.80;;;12.40;99.90;;;;;;5069339;28;20060;-80
2023/07/07 00:06:46;;;;;;;5.18;3.60;;;12.30;99.90;;;;;;5068848;28;20090;-81
2023/07/07 00:09:12;;;;;;;3.83;2.80;;;12.30;99.90;;;;;;5069215;28;20085;-80
2023/07/07 00:11:38;;;;;;;3.15;2.85;;;12.30;99.90;;;;;;5069164;28;20127;-80
2023/07/07 00:14:04;;;;;;;2.97;2.67;;;12.20;99.90;;;;;;5069259;28;20131;-80
2023/07/07 00:16:29;;;;;;;3.63;3.08;;;12.20;99.90;;;;;;5068082;28;20181;-80
2023/07/07 00:18:56;;;;;;;4.43;2.95;;;12.20;99.90;;;;;;5068443;28;20032;-80
2023/07/07 00:21:25;;;;;;;3.22;2.80;;;12.10;99.90;;;;;;5069660;28;20492;-80
2023/07/07 00:23:55;;;;;;;3.30;3.05;;;12.30;99.90;;;;;;5049078;28;20041;-80
2023/07/07 00:26:21;;;;;;;4.68;2.90;;;12.20;99.90;;;;;;5050046;28;20045;-80
2023/07/07 00:28:47;;;;;;;3.25;2.95;;;12.10;99.90;;;;;;5049028;28;20394;-80
2023/07/07 00:31:13;;;;;;;4.60;2.67;;;12.00;99.90;;;;;;5049410;28;20094;-80
2023/07/07 00:33:39;;;;;;;4.47;3.05;;;12.10;99.90;;;;;;5050815;28;20044;-81
2023/07/07 00:36:05;;;;;;;3.17;2.80;;;12.00;99.90;;;;;;5066460;28;20048;-80
2023/07/07 00:38:31;;;;;;;3.45;2.95;;;12.00;99.90;;;;;;5050867;28;20098;-81
2023/07/07 00:41:03;;;;;;;3.92;2.80;;;12.00;99.90;;;;;;5050958;28;20071;-81
2023/07/07 00:43:29;;;;;;;4.05;2.80;;;12.00;99.90;;;;;;5068523;28;20048;-81
2023/07/07 00:45:59;;;;;;;3.85;3.03;;;12.00;99.90;;;;;;5068493;28;20128;-81
2023/07/07 00:48:38;;;;;;;5.00;3.15;;;11.90;99.90;;;;;;5068353;28;20829;-81
2023/07/07 00:51:14;;;;;;;3.70;3.30;;;12.00;99.90;;;;;;5061111;28;20563;-81
2023/07/07 00:53:42;;;;;;;4.28;3.45;;;12.00;99.90;;;;;;5050469;28;20730;-81
2023/07/07 00:56:13;;;;;;;4.32;3.25;;;11.90;99.90;;;;;;5051089;28;20151;-80
2023/07/07 00:58:41;;;;;;;3.72;3.33;;;11.90;99.90;;;;;;5067180;28;20538;-80
2023/07/07 01:01:13;;;;;;;4.78;3.20;;;12.40;99.90;;;;;;5066152;28;20102;-81
2023/07/07 01:03:51;;;;;;;3.63;3.33;;;11.90;99.90;;;;;;5050045;28;20071;-81
2023/07/07 01:06:21;;;;;;;4.30;3.90;;;11.90;99.90;;;;;;5066512;28;20144;-81
2023/07/07 01:08:56;;;;;;;5.65;4.03;;;11.70;99.90;;;;;;5066670;28;20136;-81
2023/07/07 01:11:22;;;;;;;5.30;4.43;;;11.80;99.90;;;;;;5063163;28;20353;-80
2023/07/07 01:13:48;;;;;;;5.20;4.70;;;11.90;99.90;;;;;;5065768;28;20040;-80
2023/07/07 01:16:26;;;;;;;4.25;3.85;;;11.70;99.90;;;;;;5066359;28;20041;-81
2023/07/07 01:19:15;;;;;;;6.20;4.10;;;11.90;99.90;;;;;;5049326;28;20047;-80
2023/07/07 01:22:12;;;;;;;7.38;4.75;;;11.80;99.90;;;;;;5066684;28;20424;-81
2023/07/07 01:25:22;;;;;;;7.30;5.47;;;11.80;99.90;;;;;;5013138;28;20557;-81
2023/07/07 01:28:20;;;;;;;8.27;6.13;;;11.80;99.90;;;;;;5066907;28;20055;-81
2023/07/07 01:30:58;;;;;;;7.70;6.47;;;11.80;99.90;;;;;;5067439;28;20131;-81
2023/07/07 01:33:27;;;;;;;10.10;7.93;;;11.80;99.90;;;;;;5066995;28;20123;-81
2023/07/07 01:35:52;;;;;;;8.05;6.55;;;11.80;99.90;;;;;;5065419;28;20080;-81
2023/07/07 01:38:32;;;;;;;7.60;5.82;;;11.80;99.90;;;;;;5065694;28;20072;-81
2023/07/07 01:41:06;;;;;;;7.22;6.47;;;11.80;99.90;;;;;;5066669;28;20059;-81
2023/07/07 01:44:04;;;;;;;8.57;6.60;;;11.80;99.90;;;;;;5047962;28;20129;-81
2023/07/07 01:46:52;;;;;;;11.95;8.60;;;11.80;99.90;;;;;;5050128;28;20127;-80
2023/07/07 01:49:28;;;;;;;11.98;8.27;;;11.80;99.90;;;;;;5065418;28;20638;-81
2023/07/07 01:52:06;;;;;;;11.52;8.00;;;11.70;99.90;;;;;;5047752;28;20143;-81
2023/07/07 01:54:36;;;;;;;9.13;7.82;;;11.70;99.90;;;;;;5063637;28;20420;-81
2023/07/07 01:57:02;;;;;;;10.05;8.75;;;11.80;99.90;;;;;;5048918;28;20063;-81
2023/07/07 01:59:30;;;;;;;10.98;8.85;;;11.70;99.90;;;;;;5059551;28;20515;-80
2023/07/07 02:01:56;;;;;;;10.60;9.27;;;11.90;99.90;;;;;;5059500;28;20049;-81
2023/07/07 02:04:22;;;;;;;12.55;8.95;;;11.80;99.90;;;;;;5048558;28;20051;-80
2023/07/07 02:06:48;;;;;;;12.32;10.25;;;12.10;99.90;;;;;;5049492;28;20536;-81
2023/07/07 02:09:13;;;;;;;11.50;8.93;;;11.80;99.90;;;;;;5063546;28;20099;-81
2023/07/07 02:11:39;;;;;;;12.63;10.30;;;11.80;99.90;;;;;;5065862;28;20044;-81
2023/07/07 02:14:04;;;;;;;13.57;9.43;;;11.80;99.90;;;;;;5065151;28;20051;-80
2023/07/07 02:16:30;;;;;;;11.15;9.75;;;11.80;99.90;;;;;;5065286;28;20070;-81
2023/07/07 02:18:56;;;;;;;14.18;10.85;;;11.80;99.90;;;;;;5066001;28;20037;-81
2023/07/07 02:21:21;;;;;;;11.63;10.40;;;11.70;99.90;;;;;;5048602;28;20645;-81
2023/07/07 02:23:47;;;;;;;12.02;10.10;;;11.70;99.90;;;;;;5066009;28;20041;-80
2023/07/07 02:26:14;;;;;;;17.15;12.57;;;11.70;99.90;;;;;;5049138;28;20036;-80
2023/07/07 02:28:40;;;;;;;15.30;11.70;;;11.70;99.90;;;;;;5064979;28;20566;-80
2023/07/07 02:31:10;;;;;;;16.17;11.57;;;11.80;99.90;;;;;;5066127;28;20131;-80
2023/07/07 02:33:35;;;;;;;13.75;11.00;;;11.70;99.90;;;;;;5049629;28;20045;-80
2023/07/07 02:36:04;;;;;;;14.30;12.80;;;11.80;99.90;;;;;;5065659;28;20400;-80
2023/07/07 02:38:30;;;;;;;15.20;11.20;;;11.80;99.90;;;;;;5046333;28;20036;-80
2023/07/07 02:40:56;;;;;;;14.23;12.48;;;12.20;99.90;;;;;;5065247;28;20110;-81
2023/07/07 02:43:22;;;;;;;15.88;11.77;;;11.70;99.90;;;;;;5049422;28;20052;-80
2023/07/07 02:45:48;;;;;;;17.05;14.05;;;11.70;99.90;;;;;;5067086;28;20400;-80
2023/07/07 02:48:14;;;;;;;15.77;13.13;;;11.70;99.90;;;;;;5064664;28;20091;-81
2023/07/07 02:50:39;;;;;;;15.15;11.82;;;11.80;99.90;;;;;;5067033;28;20063;-81
2023/07/07 02:53:06;;;;;;;16.08;12.65;;;11.70;99.90;;;;;;5063520;28;20104;-81
2023/07/07 02:55:32;;;;;;;15.98;13.02;;;12.20;99.90;;;;;;5049104;28;20059;-80
2023/07/07 02:57:57;;;;;;;18.45;13.85;;;11.70;99.90;;;;;;5065718;28;20408;-81
2023/07/07 03:00:24;;;;;;;20.15;14.45;;;11.70;99.90;;;;;;5051779;28;20036;-80
2023/07/07 03:02:50;;;;;;;16.52;13.25;;;11.80;99.90;;;;;;5068443;28;20044;-80
2023/07/07 03:05:16;;;;;;;24.65;14.95;;;11.70;99.90;;;;;;5069872;28;20040;-81
2023/07/07 03:07:42;;;;;;;21.45;14.60;;;11.50;99.90;;;;;;5070356;28;20500;-80
2023/07/07 03:10:08;;;;;;;18.88;13.65;;;11.60;99.90;;;;;;5066223;28;20056;-80
2023/07/07 03:12:34;;;;;;;18.35;14.40;;;11.70;99.90;;;;;;5086498;28;20456;-80
2023/07/07 03:15:00;;;;;;;18.17;14.10;;;11.60;99.90;;;;;;5086073;28;20123;-81
2023/07/07 03:17:26;;;;;;;17.52;13.95;;;11.60;99.90;;;;;;5069588;28;20044;-81
2023/07/07 03:19:51;;;;;;;21.10;15.25;;;11.60;99.90;;;;;;5052428;28;20093;-80
2023/07/07 03:22:17;;;;;;;24.55;16.70;;;11.70;99.90;;;;;;5069845;28;20780;-80
2023/07/07 03:24:43;;;;;;;21.27;15.57;;;11.70;99.90;;;;;;5067991;28;20044;-80
2023/07/07 03:27:08;;;;;;;21.15;15.45;;;11.70;99.90;;;;;;5051839;28;20041;-81
2023/07/07 03:29:34;;;;;;;17.85;14.45;;;11.70;99.90;;;;;;5060498;28;20448;-81
2023/07/07 03:31:59;;;;;;;21.30;15.35;;;11.70;99.90;;;;;;5069085;28;20045;-81
2023/07/07 03:34:25;;;;;;;16.65;14.20;;;11.70;99.90;;;;;;5067522;28;20048;-81
2023/07/07 03:36:51;;;;;;;21.40;16.25;;;11.70;99.90;;;;;;5067759;28;20055;-81
2023/07/07 03:39:17;;;;;;;23.73;15.93;;;11.70;99.90;;;;;;5084822;28;20052;-81
2023/07/07 03:41:42;;;;;;;16.92;15.13;;;11.70;99.90;;;;;;5047845;28;20873;-81
2023/07/07 03:44:08;;;;;;;23.05;15.20;;;11.70;99.90;;;;;;5057134;28;20102;-81
2023/07/07 03:46:34;;;;;;;21.10;16.15;;;11.70;99.90;;;;;;5048543;28;20342;-81
2023/07/07 03:49:00;;;;;;;21.27;15.45;;;11.70;99.90;;;;;;5058505;28;20090;-81
2023/07/07 03:51:28;;;;;;;19.77;15.85;;;11.70;99.90;;;;;;5051760;28;20060;-81
2023/07/07 03:53:54;;;;;;;20.17;15.43;;;11.70;99.90;;;;;;5068222;28;20051;-82
2023/07/07 03:56:20;;;;;;;21.48;15.93;;;11.70;99.90;;;;;;5049665;28;20131;-81
2023/07/07 03:58:47;;;;;;;19.05;15.35;;;11.80;99.90;;;;;;5050687;28;20047;-82
2023/07/07 04:01:13;;;;;;;17.95;15.60;;;11.80;99.90;;;;;;5050913;28;20045;-81
2023/07/07 04:03:40;;;;;;;23.23;16.38;;;11.90;99.90;;;;;;5067638;28;20499;-81
2023/07/07 04:06:05;;;;;;;20.13;15.38;;;11.80;99.90;;;;;;5064358;28;20045;-81
2023/07/07 04:08:33;;;;;;;17.67;14.48;;;11.90;99.90;;;;;;5048673;28;20051;-81
2023/07/07 04:11:02;;;;;;;19.58;13.98;;;11.80;99.90;;;;;;5058675;28;20052;-81
2023/07/07 04:13:29;;;;;;;18.92;14.15;;;11.90;99.90;;;;;;5068402;28;20115;-81
2023/07/07 04:16:14;;;;;;;17.38;14.20;;;11.90;99.90;;;;;;5051655;28;20047;-81
2023/07/07 04:18:41;;;;;;;18.85;15.15;;;12.00;99.90;;;;;;5052063;28;20049;-81
2023/07/07 04:21:10;;;;;;;16.35;14.38;;;12.00;99.90;;;;;;5067712;28;20353;-81
2023/07/07 04:23:38;;;;;;;18.15;14.05;;;12.00;99.90;;;;;;5068539;28;20067;-81
2023/07/07 04:26:04;;;;;;;15.98;14.18;;;12.10;99.90;;;;;;5069197;28;20036;-81
2023/07/07 04:28:30;;;;;;;18.13;14.00;;;12.10;99.90;;;;;;5069022;28;20732;-81
2023/07/07 04:30:57;;;;;;;18.73;14.88;;;12.10;99.90;;;;;;5068484;28;20053;-81
2023/07/07 04:33:25;;;;;;;19.33;15.48;;;12.20;99.90;;;;;;5068956;28;20041;-81
2023/07/07 04:35:52;;;;;;;18.88;14.02;;;12.20;99.90;;;;;;5067493;28;20044;-81
2023/07/07 04:38:23;;;;;;;19.65;15.20;;;12.20;99.90;;;;;;5066643;28;20047;-80
2023/07/07 04:40:48;;;;;;;14.80;13.07;;;12.30;99.90;;;;;;5046027;28;20049;-81
2023/07/07 04:43:14;;;;;;;19.67;16.33;;;12.40;99.90;;;;;;5064235;28;20569;-81
2023/07/07 04:45:40;;;;;;;18.83;15.98;;;12.40;99.90;;;;;;5067608;28;20536;-81
2023/07/07 04:48:05;;;;;;;18.08;15.07;;;12.40;99.90;;;;;;5050468;28;20052;-81
2023/07/07 04:50:34;;;;;;;19.10;14.48;;;12.50;99.90;;;;;;5066671;28;20062;-81
2023/07/07 04:53:00;;;;;;;15.05;12.88;;;12.60;99.90;;;;;;5064814;28;20052;-81
2023/07/07 04:55:26;;;;;;;20.15;15.25;;;12.60;99.90;;;;;;5065775;28;20424;-81
2023/07/07 04:57:51;;;;;;;18.60;14.77;;;12.90;99.90;;;;;;5083708;28;20040;-81
2023/07/07 05:00:17;;;;;;;19.35;14.10;;;12.80;99.90;;;;;;5051058;28;20749;-81
2023/07/07 05:02:44;;;;;;;19.23;14.77;;;12.50;99.90;;;;;;5047895;28;20071;-81
2023/07/07 05:05:10;;;;;;;19.80;15.38;;;13.00;99.90;;;;;;5063905;28;20516;-81
2023/07/07 05:07:35;;;;;;;21.77;15.85;;;13.10;99.90;;;;;;5051210;28;20097;-81
2023/07/07 05:10:01;;;;;;;18.52;15.63;;;13.20;99.90;;;;;;5065057;28;20044;-82
2023/07/07 05:12:27;;;;;;;17.30;14.52;;;13.20;99.90;;;;;;5046546;28;20046;-82
2023/07/07 05:14:52;;;;;;;18.20;14.90;;;13.50;99.90;;;;;;5045753;28;20377;-82
2023/07/07 05:17:18;;;;;;;18.63;14.50;;;13.40;99.90;;;;;;5038479;28;20040;-82
2023/07/07 05:19:44;;;;;;;19.55;14.43;;;13.50;99.90;;;;;;5050444;28;20044;-82
2023/07/07 05:22:09;;;;;;;17.13;15.32;;;13.60;99.90;;;;;;5066759;28;20447;-82
2023/07/07 05:24:35;;;;;;;17.08;14.98;;;13.70;99.90;;;;;;5049061;28;20048;-82
2023/07/07 05:27:01;;;;;;;17.63;14.10;;;13.80;99.90;;;;;;5050842;28;20412;-82
2023/07/07 05:29:26;;;;;;;16.25;13.98;;;13.90;99.90;;;;;;5050258;28;20137;-82
2023/07/07 05:31:52;;;;;;;20.10;15.55;;;14.10;99.90;;;;;;5050525;28;20869;-82
2023/07/07 05:34:19;;;;;;;15.23;13.63;;;14.30;99.90;;;;;;5050711;28;20719;-82
2023/07/07 05:36:45;;;;;;;16.67;14.80;;;15.30;99.90;;;;;;5067681;28;20385;-82
2023/07/07 05:39:11;;;;;;;16.33;14.10;;;16.70;99.90;;;;;;5066728;28;20047;-82
2023/07/07 05:41:36;;;;;;;15.00;13.48;;;18.00;99.90;;;;;;5047523;28;20500;-80
2023/07/07 05:44:02;;;;;;;16.15;13.80;;;19.20;99.90;;;;;;5067029;28;20114;-81
2023/07/07 05:46:28;;;;;;;13.82;12.32;;;20.10;99.90;;;;;;5050034;28;20059;-81
2023/07/07 05:48:53;;;;;;;16.08;13.45;;;20.80;99.90;;;;;;5051525;28;20472;-82
2023/07/07 05:51:19;;;;;;;15.45;12.73;;;21.90;99.90;;;;;;5065489;28;20098;-81
2023/07/07 05:53:45;;;;;;;13.02;11.77;;;22.10;99.90;;;;;;5066650;28;20078;-78
2023/07/07 05:56:22;;;;;;;12.85;11.55;;;22.60;99.90;;;;;;5067394;28;20051;-80
2023/07/07 05:58:49;;;;;;;13.02;11.73;;;22.90;99.90;;;;;;5068464;28;20124;-81
2023/07/07 06:01:15;;;;;;;11.93;10.73;;;23.20;99.90;;;;;;5065850;28;20044;-80
2023/07/07 06:03:41;;;;;;;12.88;11.13;;;23.50;99.90;;;;;;5049637;28;20047;-81
2023/07/07 06:06:07;;;;;;;12.55;10.68;;;23.60;99.90;;;;;;5066373;28;20041;-82
2023/07/07 06:08:33;;;;;;;11.05;9.65;;;23.90;99.90;;;;;;5066757;28;20114;-83
2023/07/07 06:10:59;;;;;;;11.38;9.48;;;24.20;99.90;;;;;;5067027;28;20049;-84
2023/07/07 06:13:25;;;;;;;9.63;8.73;;;24.80;99.90;;;;;;5050274;28;20032;-83
2023/07/07 06:15:52;;;;;;;9.85;8.90;;;24.80;99.90;;;;;;5066184;28;20041;-84
2023/07/07 06:18:18;;;;;;;9.80;8.80;;;25.20;99.60;;;;;;5064555;28;20048;-83
2023/07/07 06:20:55;;;;;;;9.43;8.43;;;25.30;98.60;;;;;;5067600;28;20052;-83
2023/07/07 06:23:21;;;;;;;8.98;8.10;;;25.50;96.70;;;;;;5066863;28;20403;-83
2023/07/07 06:25:48;;;;;;;9.77;8.77;;;25.60;97.10;;;;;;5050079;28;20052;-83
2023/07/07 06:28:15;;;;;;;9.55;8.40;;;25.80;96.30;;;;;;5065896;28;20044;-83
2023/07/07 06:30:41;;;;;;;8.63;7.32;;;25.80;95.20;;;;;;5060338;28;20133;-83
2023/07/07 06:33:06;;;;;;;9.55;7.90;;;25.80;93.90;;;;;;5062304;28;20052;-83
2023/07/07 06:35:32;;;;;;;9.40;8.05;;;25.80;93.40;;;;;;5069600;28;20044;-84
2023/07/07 06:37:58;;;;;;;8.50;7.70;;;25.80;93.30;;;;;;5067932;28;20068;-83
2023/07/07 06:40:26;;;;;;;8.55;7.53;;;25.90;93.00;;;;;;5067355;28;20036;-83
2023/07/07 06:42:54;;;;;;;7.93;6.88;;;25.60;92.70;;;;;;5086399;28;20072;-83
2023/07/07 06:45:21;;;;;;;8.07;7.03;;;24.80;93.70;;;;;;5070555;28;20155;-84
2023/07/07 06:47:47;;;;;;;8.93;7.05;;;23.90;95.90;;;;;;5069071;28;20057;-85
2023/07/07 06:50:27;;;;;;;10.57;7.30;;;23.00;99.10;;;;;;5067819;28;20052;-84
2023/07/07 06:52:55;;;;;;;8.18;6.70;;;22.40;99.90;;;;;;5061952;28;20775;-86
2023/07/07 06:55:21;;;;;;;7.97;6.15;;;22.20;99.90;;;;;;5071202;28;20040;-85
2023/07/07 06:57:47;;;;;;;7.65;6.43;;;21.70;99.90;;;;;;5068018;28;20132;-86
2023/07/07 07:00:13;;;;;;;6.28;5.53;;;21.50;99.90;;;;;;5040220;28;20131;-83
2023/07/07 07:02:39;;;;;;;7.70;5.13;;;21.40;99.90;;;;;;5053265;28;20044;-83
2023/07/07 07:05:05;;;;;;;5.70;4.75;;;21.30;99.90;;;;;;5068258;28;20036;-83
2023/07/07 07:07:31;;;;;;;6.72;4.70;;;21.20;99.90;;;;;;5053077;28;20101;-81
2023/07/07 07:09:57;;;;;;;6.90;4.30;;;21.40;99.90;;;;;;5069535;28;20630;-83
2023/07/07 07:12:23;;;;;;;6.13;4.90;;;21.30;99.90;;;;;;5070677;28;20040;-83
2023/07/07 07:14:48;;;;;;;4.75;4.22;;;21.30;99.90;;;;;;5066294;28;20048;-82
2023/07/07 07:17:14;;;;;;;6.50;4.30;;;21.50;99.90;;;;;;5068630;28;20496;-82
2023/07/07 07:19:40;;;;;;;6.53;4.28;;;21.40;99.90;;;;;;5051721;28;20802;-83
2023/07/07 07:22:06;;;;;;;6.05;4.28;;;21.50;99.90;;;;;;5069770;28;20080;-83
2023/07/07 07:24:31;;;;;;;5.40;4.07;;;21.50;99.90;;;;;;5053126;28;20044;-82
2023/07/07 07:26:57;;;;;;;4.30;3.42;;;21.70;99.90;;;;;;5052811;28;20140;-83
2023/07/07 07:29:22;;;;;;;6.18;3.88;;;21.80;99.90;;;;;;5069549;28;20049;-84
2023/07/07 07:31:48;;;;;;;4.00;3.33;;;22.00;99.90;;;;;;5051877;28;20362;-83
2023/07/07 07:34:24;;;;;;;4.55;3.13;;;22.00;99.90;;;;;;5068166;28;20044;-83
2023/07/07 07:36:51;;;;;;;4.43;3.33;;;22.10;99.90;;;;;;5052826;28;20087;-83
2023/07/07 07:39:17;;;;;;;6.28;3.58;;;22.20;99.90;;;;;;5052349;28;20078;-84
2023/07/07 07:41:46;;;;;;;5.30;3.00;;;22.30;99.90;;;;;;5069221;28;20045;-83
2023/07/07 07:44:13;;;;;;;5.70;3.08;;;22.40;99.70;;;;;;5069118;28;20098;-81
2023/07/07 07:46:40;;;;;;;4.18;3.17;;;22.50;99.50;;;;;;5067241;28;20063;-83
2023/07/07 07:49:05;;;;;;;4.28;3.20;;;22.60;99.10;;;;;;5051066;28;20082;-84
2023/07/07 07:51:31;;;;;;;4.32;2.80;;;22.60;98.70;;;;;;5064221;28;20130;-84
2023/07/07 07:53:56;;;;;;;6.47;2.85;;;22.70;98.10;;;;;;5050310;28;20063;-84
2023/07/07 07:56:22;;;;;;;4.78;3.10;;;22.80;98.20;;;;;;5050389;28;20404;-87
2023/07/07 07:58:48;;;;;;;5.00;3.13;;;22.90;98.10;;;;;;5032442;28;20041;-86
2023/07/07 08:01:13;;;;;;;5.80;2.78;;;22.90;97.40;;;;;;5032481;28;20120;-85
2023/07/07 08:03:39;;;;;;;3.83;2.95;;;23.00;97.50;;;;;;5041351;28;20047;-85
2023/07/07 08:06:04;;;;;;;4.57;3.15;;;23.20;97.00;;;;;;5051269;28;20143;-82
2023/07/07 08:08:32;;;;;;;3.63;2.80;;;23.20;96.50;;;;;;5068153;28;20045;-83
2023/07/07 08:10:58;;;;;;;4.57;2.60;;;23.30;95.80;;;;;;5068617;28;20500;-84
2023/07/07 08:13:23;;;;;;;4.57;3.08;;;23.50;95.60;;;;;;5070082;28;20086;-84
2023/07/07 08:15:49;;;;;;;4.97;3.00;;;23.50;95.20;;;;;;5069767;28;20399;-83
2023/07/07 08:18:15;;;;;;;4.00;2.60;;;23.50;94.70;;;;;;5069996;28;20429;-84
2023/07/07 08:20:40;;;;;;;5.22;2.45;;;23.60;94.70;;;;;;5069198;28;20098;-84
2023/07/07 08:23:06;;;;;;;4.15;2.40;;;23.70;94.30;;;;;;5068561;28;20582;-85
2023/07/07 08:25:34;;;;;;;3.58;2.42;;;23.50;92.80;;;;;;5068266;28;20417;-85
2023/07/07 08:28:03;;;;;;;3.92;2.28;;;23.70;92.50;;;;;;5036221;28;20496;-83
2023/07/07 08:30:29;;;;;;;7.25;2.85;;;23.90;91.80;;;;;;5048465;28;20036;-84
2023/07/07 08:32:55;;;;;;;3.78;2.28;;;24.10;92.30;;;;;;5048444;28;20132;-84
2023/07/07 08:35:21;;;;;;;2.28;1.90;;;24.20;91.10;;;;;;5048170;28;20123;-84
2023/07/07 08:37:46;;;;;;;4.97;2.42;;;24.20;88.60;;;;;;5048900;28;20394;-84
2023/07/07 08:40:20;;;;;;;2.95;2.25;;;24.20;83.30;;;;;;5046919;28;20044;-83
2023/07/07 08:42:46;;;;;;;3.25;1.88;;;24.20;81.00;;;;;;5031645;28;20058;-83
2023/07/07 08:45:15;;;;;;;2.75;1.77;;;24.30;81.70;;;;;;5048563;28;20084;-83
2023/07/07 08:47:59;;;;;;;5.80;2.13;;;24.30;79.20;;;;;;5049678;28;20120;-84
2023/07/07 08:50:34;;;;;;;3.30;2.00;;;24.40;79.80;;;;;;5047405;28;20061;-84
2023/07/07 08:53:38;;;;;;;3.72;2.10;;;24.50;76.20;;;;;;5031546;28;20045;-85
2023/07/07 08:56:17;;;;;;;2.30;2.00;;;24.50;74.80;;;;;;5040704;28;20044;-87
2023/07/07 08:58:52;;;;;;;3.20;2.05;;;24.60;78.40;;;;;;5085139;28;20048;-86
2023/07/07 09:01:36;;;;;;;3.42;2.00;;;24.70;72.60;;;;;;5063803;28;20055;-86
2023/07/07 09:04:08;;;;;;;3.38;2.00;;;24.80;75.20;;;;;;5067414;28;20044;-85
2023/07/07 09:06:42;;;;;;;3.08;2.08;;;24.90;72.10;;;;;;5067416;28;20155;-84
2023/07/07 09:09:35;;;;;;;2.15;1.92;;;24.90;69.40;;;;;;5051269;28;20150;-84
2023/07/07 09:12:06;;;;;;;3.63;2.83;;;24.90;69.90;;;;;;5068250;28;20055;-83
2023/07/07 09:14:34;;;;;;;5.03;2.38;;;25.00;71.20;;;;;;5050893;28;20036;-85
2023/07/07 09:17:12;;;;;;;2.60;2.00;;;24.90;68.60;;;;;;5066618;28;20045;-83
2023/07/07 09:19:42;;;;;;;2.97;2.08;;;25.00;69.10;;;;;;5066625;28;20090;-82
2023/07/07 09:22:21;;;;;;;2.03;1.80;;;25.00;68.80;;;;;;5066096;28;20044;-83
2023/07/07 09:25:01;;;;;;;7.95;2.35;;;25.10;69.00;;;;;;5066513;28;20045;-83
2023/07/07 09:27:39;;;;;;;2.30;1.90;;;25.20;66.40;;;;;;5049645;28;20044;-82
2023/07/07 09:30:22;;;;;;;2.60;1.65;;;25.30;65.70;;;;;;5049058;28;20048;-82
2023/07/07 09:32:48;;;;;;;2.30;1.80;;;25.50;64.90;;;;;;5066025;28;20044;-82
2023/07/07 09:35:14;;;;;;;2.38;1.60;;;25.60;65.10;;;;;;5064799;28;20103;-83
2023/07/07 09:37:55;;;;;;;3.42;1.98;;;25.50;65.40;;;;;;5066880;28;20044;-82
2023/07/07 09:40:42;;;;;;;4.40;1.88;;;25.50;65.30;;;;;;5067536;28;20101;-83
2023/07/07 09:43:23;;;;;;;3.33;1.75;;;25.70;65.50;;;;;;5067207;28;20123;-82
2023/07/07 09:46:20;;;;;;;5.53;3.08;;;25.60;64.40;;;;;;5067400;28;20040;-82
2023/07/07 09:49:01;;;;;;;4.07;2.03;;;25.70;60.10;;;;;;5067418;28;20146;-85
2023/07/07 09:51:51;;;;;;;2.90;2.22;;;25.60;64.10;;;;;;5065915;28;20091;-83
2023/07/07 09:54:19;;;;;;;3.08;1.98;;;25.50;62.40;;;;;;5066185;28;20076;-83
2023/07/07 09:56:59;;;;;;;4.70;2.30;;;25.50;64.40;;;;;;5050533;28;20044;-83
2023/07/07 09:59:34;;;;;;;2.83;1.92;;;25.60;63.60;;;;;;5050717;28;20044;-83
2023/07/07 10:02:00;;;;;;;2.20;2.00;;;25.80;64.20;;;;;;5067078;28;20519;-85
2023/07/07 10:04:29;;;;;;;3.20;2.05;;;25.50;63.10;;;;;;5049599;28;20052;-84
2023/07/07 10:07:09;;;;;;;3.03;2.20;;;25.90;62.90;;;;;;5049973;28;20056;-84
2023/07/07 10:09:35;;;;;;;3.40;2.17;;;26.00;59.10;;;;;;5054076;28;20056;-84
2023/07/07 10:12:01;;;;;;;3.63;1.92;;;26.10;61.50;;;;;;5056721;28;20058;-83
2023/07/07 10:14:29;;;;;;;2.05;1.80;;;26.10;61.30;;;;;;5073568;28;20086;-84
2023/07/07 10:17:10;;;;;;;2.85;2.20;;;26.10;60.70;;;;;;5073744;28;20053;-82
2023/07/07 10:19:42;;;;;;;2.50;1.98;;;25.90;59.20;;;;;;5055115;28;20049;-82
2023/07/07 10:22:12;;;;;;;4.43;2.10;;;25.90;60.70;;;;;;5073240;28;20356;-84
2023/07/07 10:24:37;;;;;;;2.85;1.83;;;26.00;60.50;;;;;;5055453;28;20141;-84
2023/07/07 10:27:04;;;;;;;2.15;1.95;;;26.00;60.60;;;;;;5073327;28;20186;-84
2023/07/07 10:29:37;;;;;;;2.75;1.85;;;25.80;59.90;;;;;;5056967;28;20060;-84
2023/07/07 10:32:03;;;;;;;3.38;2.28;;;25.80;61.20;;;;;;5056461;28;20043;-83
2023/07/07 10:34:35;;;;;;;4.80;2.05;;;25.80;61.40;;;;;;5055771;28;20066;-83
2023/07/07 10:37:01;;;;;;;3.20;2.22;;;25.70;62.20;;;;;;5049082;28;20071;-83
2023/07/07 10:39:29;;;;;;;2.67;2.08;;;26.10;62.50;;;;;;5055893;28;20060;-84
2023/07/07 10:41:55;;;;;;;4.25;1.98;;;26.30;60.10;;;;;;5073247;28;20097;-84
2023/07/07 10:44:26;;;;;;;2.90;2.05;;;26.40;58.90;;;;;;5072253;28;20136;-84
2023/07/07 10:46:51;;;;;;;2.77;2.10;;;26.40;57.60;;;;;;5056273;28;20121;-83
2023/07/07 10:49:20;;;;;;;2.67;2.20;;;26.30;56.50;;;;;;5073112;28;20071;-82
2023/07/07 10:52:13;;;;;;;2.97;2.22;;;26.20;56.30;;;;;;5063000;28;20088;-84
2023/07/07 10:54:54;;;;;;;3.53;2.08;;;26.20;55.70;;;;;;5052736;28;20135;-83
2023/07/07 10:57:25;;;;;;;2.60;1.95;;;26.10;56.90;;;;;;5052445;28;20416;-84
2023/07/07 11:00:18;;;;;;;1.88;1.77;;;26.10;56.80;;;;;;5051102;28;20090;-84
2023/07/07 11:03:37;;;;;;;5.28;2.33;;;26.20;59.10;;;;;;5072835;28;20048;-83
2023/07/07 11:06:16;;;;;;;4.35;2.45;;;26.10;56.70;;;;;;5013787;28;20736;-84
2023/07/07 11:08:50;;;;;;;3.95;2.22;;;26.30;57.40;;;;;;5009763;28;20041;-84
2023/07/07 11:11:22;;;;;;;3.90;2.10;;;26.20;56.90;;;;;;5054670;28;20057;-84
2023/07/07 11:14:07;;;;;;;2.97;2.22;;;26.30;57.80;;;;;;5056111;28;20040;-83
2023/07/07 11:16:43;;;;;;;3.17;2.10;;;26.30;57.60;;;;;;5085817;28;20044;-85
2023/07/07 11:19:27;;;;;;;3.97;2.15;;;26.30;56.10;;;;;;5072627;28;20056;-83
2023/07/07 11:22:14;;;;;;;3.58;2.00;;;26.20;56.40;;;;;;5052812;28;20048;-82
2023/07/07 11:25:14;;;;;;;2.88;1.80;;;26.30;55.50;;;;;;5053359;28;20484;-83
2023/07/07 11:28:17;;;;;;;2.42;1.88;;;26.40;54.80;;;;;;5068842;28;20041;-83
2023/07/07 11:31:19;;;;;;;2.08;1.75;;;26.60;54.00;;;;;;5044630;28;20055;-82
2023/07/07 11:34:29;;;;;;;2.75;2.20;;;26.60;54.30;;;;;;5044356;28;20123;-82
2023/07/07 11:37:15;;;;;;;2.67;1.90;;;26.60;52.70;;;;;;5059848;28;20393;-81
2023/07/07 11:39:52;;;;;;;2.53;1.92;;;26.60;53.50;;;;;;5051450;28;20180;-81
2023/07/07 11:42:32;;;;;;;2.30;1.90;;;26.60;55.10;;;;;;5069329;28;20084;-81
2023/07/07 11:45:28;;;;;;;2.70;2.08;;;26.50;54.50;;;;;;5052723;28;20041;-82
2023/07/07 11:48:08;;;;;;;3.25;2.10;;;26.50;53.30;;;;;;5070936;28;20094;-82
2023/07/07 11:50:43;;;;;;;2.97;1.95;;;26.60;53.80;;;;;;5066475;28;20079;-81
2023/07/07 11:53:30;;;;;;;2.55;1.73;;;26.60;52.70;;;;;;5052270;28;20076;-81
2023/07/07 11:56:14;;;;;;;3.97;2.25;;;26.60;50.20;;;;;;5070488;28;20045;-81
2023/07/07 11:58:51;;;;;;;3.70;2.33;;;26.50;51.30;;;;;;5069431;28;20054;-80
2023/07/07 12:01:31;;;;;;;3.60;2.00;;;26.50;51.10;;;;;;5069151;28;20047;-83
2023/07/07 12:04:21;;;;;;;3.65;2.30;;;26.50;50.60;;;;;;5050013;28;20487;-83
2023/07/07 12:06:52;;;;;;;6.50;2.25;;;26.50;51.20;;;;;;5055945;28;20059;-81
2023/07/07 12:09:29;;;;;;;4.20;2.33;;;26.60;51.80;;;;;;5069187;28;20053;-81
2023/07/07 12:12:04;;;;;;;2.75;2.30;;;26.70;52.10;;;;;;5068891;28;20393;-79
2023/07/07 12:14:41;;;;;;;3.47;2.03;;;26.70;51.90;;;;;;5070183;28;20053;-80
2023/07/07 12:17:14;;;;;;;2.60;2.13;;;26.70;51.90;;;;;;5069744;28;20040;-80
2023/07/07 12:19:52;;;;;;;4.22;2.25;;;26.70;52.10;;;;;;5069513;28;20052;-79
2023/07/07 12:22:30;;;;;;;1.88;1.73;;;26.80;51.60;;;;;;5070136;28;20152;-79
2023/07/07 12:25:26;;;;;;;2.60;1.90;;;26.80;52.30;;;;;;5068739;28;20400;-80
2023/07/07 12:27:53;;;;;;;2.90;2.00;;;26.80;49.80;;;;;;5063793;28;20044;-80
2023/07/07 12:30:30;;;;;;;2.60;1.80;;;26.80;51.70;;;;;;5069511;28;20079;-80
2023/07/07 12:32:57;;;;;;;4.80;2.17;;;26.80;50.50;;;;;;5069465;28;20123;-79
2023/07/07 12:35:41;;;;;;;2.63;2.15;;;26.70;50.50;;;;;;5069822;28;20044;-79
2023/07/07 12:38:21;;;;;;;3.58;1.95;;;26.70;50.50;;;;;;5069777;28;20492;-79
2023/07/07 12:40:48;;;;;;;2.90;2.17;;;26.80;49.40;;;;;;5069982;28;20044;-79
2023/07/07 12:43:20;;;;;;;3.30;2.05;;;26.70;51.20;;;;;;5069079;28;20048;-80
2023/07/07 12:45:48;;;;;;;4.13;1.90;;;26.80;49.60;;;;;;5068235;28;20436;-80
2023/07/07 12:48:19;;;;;;;2.83;1.98;;;26.90;49.60;;;;;;5069848;28;20037;-79
2023/07/07 12:50:45;;;;;;;2.50;1.93;;;26.80;48.80;;;;;;5068874;28;20105;-80
2023/07/07 12:53:27;;;;;;;2.92;2.22;;;26.70;48.80;;;;;;5069734;28;20094;-80
2023/07/07 12:56:01;;;;;;;;;;;26.70;46.40;;;;;;5070066;28;20044;-80
2023/07/07 12:58:36;;;;;;;2.42;2.00;;;26.70;47.90;;;;;;5067142;28;19974;-80
2023/07/07 13:01:07;;;;;;;2.50;1.95;;;26.80;47.20;;;;;;5031599;28;20052;-80